sensor_id;sensor_type;location;lat;lon;timestamp;pressure;altitude;pressure_sealevel;temperature;humidity
9462;BME280;4769;42.660;23.262;2023-04-07T00:01:12;93716.50;;;3.34;57.78
9462;BME280;4769;42.660;23.262;2023-04-07T00:03:37;93710.88;;;3.37;57.68
9462;BME280;4769;42.660;23.262;2023-04-07T00:06:06;93709.28;;;3.36;58.50
9462;BME280;4769;42.660;23.262;2023-04-07T00:08:32;93718.50;;;3.32;58.10
9462;BME280;4769;42.660;23.262;2023-04-07T00:10:57;93719.69;;;3.36;58.53
9462;BME280;4769;42.660;23.262;2023-04-07T00:13:23;93711.31;;;3.34;58.49
9462;BME280;4769;42.660;23.262;2023-04-07T00:15:49;93714.31;;;3.24;58.90
9462;BME280;4769;42.660;23.262;2023-04-07T00:18:14;93710.53;;;3.20;59.29
9462;BME280;4769;42.660;23.262;2023-04-07T00:20:40;93706.66;;;3.36;59.01
9462;BME280;4769;42.660;23.262;2023-04-07T00:23:08;93694.47;;;3.36;59.10
9462;BME280;4769;42.660;23.262;2023-04-07T00:25:34;93700.22;;;3.45;58.69
9462;BME280;4769;42.660;23.262;2023-04-07T00:27:59;93714.88;;;3.33;58.45
9462;BME280;4769;42.660;23.262;2023-04-07T00:30:25;93706.31;;;3.26;59.86
9462;BME280;4769;42.660;23.262;2023-04-07T00:32:51;93703.97;;;3.05;60.63
9462;BME280;4769;42.660;23.262;2023-04-07T00:35:17;93709.56;;;3.15;59.90
9462;BME280;4769;42.660;23.262;2023-04-07T00:37:42;93708.97;;;3.06;61.39
9462;BME280;4769;42.660;23.262;2023-04-07T00:40:11;93710.84;;;2.73;62.56
9462;BME280;4769;42.660;23.262;2023-04-07T00:42:37;93708.22;;;2.86;62.52
9462;BME280;4769;42.660;23.262;2023-04-07T00:45:03;93699.75;;;3.04;60.05
9462;BME280;4769;42.660;23.262;2023-04-07T00:47:29;93705.16;;;3.09;60.48
9462;BME280;4769;42.660;23.262;2023-04-07T00:49:54;93698.91;;;3.16;59.41
9462;BME280;4769;42.660;23.262;2023-04-07T00:52:20;93700.09;;;3.20;58.70
9462;BME280;4769;42.660;23.262;2023-04-07T00:54:46;93713.13;;;3.27;59.24
9462;BME280;4769;42.660;23.262;2023-04-07T00:57:15;93705.75;;;3.11;59.77
9462;BME280;4769;42.660;23.262;2023-04-07T00:59:40;93698.88;;;3.29;59.71
9462;BME280;4769;42.660;23.262;2023-04-07T01:02:10;93700.91;;;3.27;58.85
9462;BME280;4769;42.660;23.262;2023-04-07T01:04:43;93701.94;;;3.13;59.16
9462;BME280;4769;42.660;23.262;2023-04-07T01:07:15;93705.75;;;3.17;60.58
9462;BME280;4769;42.660;23.262;2023-04-07T01:09:46;93702.56;;;3.02;60.68
9462;BME280;4769;42.660;23.262;2023-04-07T01:12:22;93699.16;;;3.08;60.75
9462;BME280;4769;42.660;23.262;2023-04-07T01:14:50;93694.13;;;3.13;60.04
9462;BME280;4769;42.660;23.262;2023-04-07T01:17:20;93691.91;;;3.17;60.01
9462;BME280;4769;42.660;23.262;2023-04-07T01:19:49;93683.28;;;3.16;59.77
9462;BME280;4769;42.660;23.262;2023-04-07T01:22:24;93695.16;;;3.12;60.00
9462;BME280;4769;42.660;23.262;2023-04-07T01:25:05;93697.34;;;3.09;59.95
9462;BME280;4769;42.660;23.262;2023-04-07T01:27:42;93688.13;;;3.13;60.25
9462;BME280;4769;42.660;23.262;2023-04-07T01:30:16;93694.13;;;3.20;59.22
9462;BME280;4769;42.660;23.262;2023-04-07T01:32:44;93685.66;;;3.31;58.41
9462;BME280;4769;42.660;23.262;2023-04-07T01:35:12;93681.84;;;3.33;58.65
9462;BME280;4769;42.660;23.262;2023-04-07T01:37:38;93682.47;;;3.29;59.06
9462;BME280;4769;42.660;23.262;2023-04-07T01:40:07;93679.81;;;3.35;57.80
9462;BME280;4769;42.660;23.262;2023-04-07T01:42:33;93682.84;;;3.32;57.14
9462;BME280;4769;42.660;23.262;2023-04-07T01:45:00;93666.34;;;3.45;56.74
9462;BME280;4769;42.660;23.262;2023-04-07T01:47:30;93674.47;;;3.61;55.72
9462;BME280;4769;42.660;23.262;2023-04-07T01:49:57;93665.69;;;3.56;55.83
9462;BME280;4769;42.660;23.262;2023-04-07T01:52:23;93666.47;;;3.63;56.00
9462;BME280;4769;42.660;23.262;2023-04-07T01:54:49;93669.91;;;3.57;55.26
9462;BME280;4769;42.660;23.262;2023-04-07T01:57:15;93667.13;;;3.52;54.81
9462;BME280;4769;42.660;23.262;2023-04-07T01:59:41;93660.31;;;3.44;56.33
9462;BME280;4769;42.660;23.262;2023-04-07T02:02:07;93673.63;;;3.36;58.18
9462;BME280;4769;42.660;23.262;2023-04-07T02:04:39;93666.28;;;3.14;58.72
9462;BME280;4769;42.660;23.262;2023-04-07T02:07:13;93667.09;;;3.08;58.27
9462;BME280;4769;42.660;23.262;2023-04-07T02:09:41;93670.34;;;3.03;57.90
9462;BME280;4769;42.660;23.262;2023-04-07T02:12:10;93671.25;;;3.22;56.54
9462;BME280;4769;42.660;23.262;2023-04-07T02:14:37;93664.63;;;3.26;56.41
9462;BME280;4769;42.660;23.262;2023-04-07T02:17:03;93652.00;;;3.23;56.32
9462;BME280;4769;42.660;23.262;2023-04-07T02:19:30;93661.22;;;3.25;55.59
9462;BME280;4769;42.660;23.262;2023-04-07T02:22:01;93659.72;;;3.49;54.75
9462;BME280;4769;42.660;23.262;2023-04-07T02:24:27;93662.66;;;3.59;54.60
9462;BME280;4769;42.660;23.262;2023-04-07T02:26:52;93661.28;;;3.56;54.30
9462;BME280;4769;42.660;23.262;2023-04-07T02:29:18;93687.13;;;3.58;53.39
9462;BME280;4769;42.660;23.262;2023-04-07T02:31:44;93659.38;;;3.39;54.38
9462;BME280;4769;42.660;23.262;2023-04-07T02:34:09;93665.34;;;3.46;54.15
9462;BME280;4769;42.660;23.262;2023-04-07T02:36:35;93659.88;;;3.54;53.94
9462;BME280;4769;42.660;23.262;2023-04-07T02:39:04;93669.06;;;3.63;53.50
9462;BME280;4769;42.660;23.262;2023-04-07T02:41:29;93674.09;;;3.58;53.39
9462;BME280;4769;42.660;23.262;2023-04-07T02:43:55;93666.31;;;3.51;54.31
9462;BME280;4769;42.660;23.262;2023-04-07T02:46:21;93670.84;;;3.62;53.76
9462;BME280;4769;42.660;23.262;2023-04-07T02:48:46;93667.34;;;3.44;53.81
9462;BME280;4769;42.660;23.262;2023-04-07T02:51:12;93658.69;;;3.50;53.86
9462;BME280;4769;42.660;23.262;2023-04-07T02:53:38;93669.16;;;3.43;53.57
9462;BME280;4769;42.660;23.262;2023-04-07T02:56:06;93683.56;;;3.46;54.31
9462;BME280;4769;42.660;23.262;2023-04-07T02:58:32;93679.16;;;3.53;54.04
9462;BME280;4769;42.660;23.262;2023-04-07T03:00:58;93667.50;;;3.55;54.02
9462;BME280;4769;42.660;23.262;2023-04-07T03:03:23;93684.66;;;3.69;54.50
9462;BME280;4769;42.660;23.262;2023-04-07T03:05:49;93678.34;;;3.52;55.80
9462;BME280;4769;42.660;23.262;2023-04-07T03:08:15;93675.38;;;3.42;56.36
9462;BME280;4769;42.660;23.262;2023-04-07T03:10:40;93686.38;;;3.44;55.40
9462;BME280;4769;42.660;23.262;2023-04-07T03:13:09;93676.78;;;3.45;55.17
9462;BME280;4769;42.660;23.262;2023-04-07T03:15:35;93678.19;;;3.41;55.85
9462;BME280;4769;42.660;23.262;2023-04-07T03:18:00;93681.28;;;3.62;56.06
9462;BME280;4769;42.660;23.262;2023-04-07T03:20:26;93688.59;;;3.47;56.35
9462;BME280;4769;42.660;23.262;2023-04-07T03:22:52;93690.44;;;3.40;56.42
9462;BME280;4769;42.660;23.262;2023-04-07T03:25:17;93685.97;;;3.47;56.06
9462;BME280;4769;42.660;23.262;2023-04-07T03:27:43;93681.84;;;3.33;55.50
9462;BME280;4769;42.660;23.262;2023-04-07T03:30:12;93689.69;;;3.20;56.15
9462;BME280;4769;42.660;23.262;2023-04-07T03:32:38;93675.22;;;3.37;55.20
9462;BME280;4769;42.660;23.262;2023-04-07T03:35:05;93677.75;;;3.50;55.77
9462;BME280;4769;42.660;23.262;2023-04-07T03:37:33;93681.97;;;3.45;56.02
9462;BME280;4769;42.660;23.262;2023-04-07T03:39:59;93665.50;;;3.51;55.59
9462;BME280;4769;42.660;23.262;2023-04-07T03:42:25;93675.94;;;3.51;55.78
9462;BME280;4769;42.660;23.262;2023-04-07T03:44:50;93681.25;;;3.31;56.02
9462;BME280;4769;42.660;23.262;2023-04-07T03:47:19;93684.47;;;3.27;56.47
9462;BME280;4769;42.660;23.262;2023-04-07T03:49:44;93682.47;;;3.29;57.03
9462;BME280;4769;42.660;23.262;2023-04-07T03:52:10;93675.88;;;3.26;56.38
9462;BME280;4769;42.660;23.262;2023-04-07T03:54:36;93678.19;;;3.41;55.97
9462;BME280;4769;42.660;23.262;2023-04-07T03:57:01;93687.84;;;3.34;56.14
9462;BME280;4769;42.660;23.262;2023-04-07T03:59:27;93693.25;;;3.39;55.73
9462;BME280;4769;42.660;23.262;2023-04-07T04:01:53;93664.97;;;3.36;55.82
9462;BME280;4769;42.660;23.262;2023-04-07T04:04:21;93669.44;;;3.29;55.49
9462;BME280;4769;42.660;23.262;2023-04-07T04:06:48;93686.06;;;3.28;56.08
9462;BME280;4769;42.660;23.262;2023-04-07T04:09:13;93688.84;;;3.33;55.90
9462;BME280;4769;42.660;23.262;2023-04-07T04:11:39;93680.00;;;3.40;55.87
9462;BME280;4769;42.660;23.262;2023-04-07T04:14:05;93680.97;;;3.46;55.41
9462;BME280;4769;42.660;23.262;2023-04-07T04:16:30;93696.38;;;3.54;55.08
9462;BME280;4769;42.660;23.262;2023-04-07T04:18:56;93687.16;;;3.51;55.88
9462;BME280;4769;42.660;23.262;2023-04-07T04:21:24;93695.81;;;3.45;55.07
9462;BME280;4769;42.660;23.262;2023-04-07T04:23:50;93696.00;;;3.50;55.46
9462;BME280;4769;42.660;23.262;2023-04-07T04:26:16;93696.72;;;3.64;55.18
9462;BME280;4769;42.660;23.262;2023-04-07T04:28:41;93682.50;;;3.60;55.37
9462;BME280;4769;42.660;23.262;2023-04-07T04:31:07;93688.97;;;3.51;55.27
9462;BME280;4769;42.660;23.262;2023-04-07T04:33:33;93690.19;;;3.48;55.12
9462;BME280;4769;42.660;23.262;2023-04-07T04:35:58;93692.34;;;3.58;55.09
9462;BME280;4769;42.660;23.262;2023-04-07T04:38:27;93690.25;;;3.73;55.19
9462;BME280;4769;42.660;23.262;2023-04-07T04:40:52;93703.78;;;3.94;53.87
9462;BME280;4769;42.660;23.262;2023-04-07T04:43:18;93693.78;;;3.91;53.82
9462;BME280;4769;42.660;23.262;2023-04-07T04:45:44;93698.59;;;3.88;54.69
9462;BME280;4769;42.660;23.262;2023-04-07T04:48:09;93687.50;;;3.99;54.09
9462;BME280;4769;42.660;23.262;2023-04-07T04:50:35;93684.25;;;4.03;53.40
9462;BME280;4769;42.660;23.262;2023-04-07T04:53:01;93688.38;;;4.17;53.35
9462;BME280;4769;42.660;23.262;2023-04-07T04:55:29;93677.47;;;4.27;52.90
9462;BME280;4769;42.660;23.262;2023-04-07T04:57:55;93702.63;;;4.46;52.64
9462;BME280;4769;42.660;23.262;2023-04-07T05:00:21;93689.78;;;4.44;51.99
9462;BME280;4769;42.660;23.262;2023-04-07T05:02:46;93692.13;;;4.52;51.88
9462;BME280;4769;42.660;23.262;2023-04-07T05:05:12;93695.34;;;4.48;51.34
9462;BME280;4769;42.660;23.262;2023-04-07T05:07:38;93714.00;;;4.27;51.65
9462;BME280;4769;42.660;23.262;2023-04-07T05:10:05;93705.53;;;4.31;51.83
9462;BME280;4769;42.660;23.262;2023-04-07T05:12:33;93710.13;;;4.36;51.90
9462;BME280;4769;42.660;23.262;2023-04-07T05:14:59;93710.44;;;4.46;51.33
9462;BME280;4769;42.660;23.262;2023-04-07T05:17:25;93712.63;;;4.49;51.49
9462;BME280;4769;42.660;23.262;2023-04-07T05:19:50;93705.69;;;4.61;51.50
9462;BME280;4769;42.660;23.262;2023-04-07T05:22:16;93723.41;;;4.59;51.06
9462;BME280;4769;42.660;23.262;2023-04-07T05:24:42;93727.75;;;4.65;50.52
9462;BME280;4769;42.660;23.262;2023-04-07T05:27:07;93727.50;;;4.73;50.64
9462;BME280;4769;42.660;23.262;2023-04-07T05:29:36;93738.31;;;4.76;49.99
9462;BME280;4769;42.660;23.262;2023-04-07T05:32:03;93730.94;;;4.67;50.84
9462;BME280;4769;42.660;23.262;2023-04-07T05:34:29;93717.59;;;4.99;49.83
9462;BME280;4769;42.660;23.262;2023-04-07T05:36:54;93723.47;;;5.13;49.92
9462;BME280;4769;42.660;23.262;2023-04-07T05:39:20;93720.16;;;5.24;49.22
9462;BME280;4769;42.660;23.262;2023-04-07T05:41:46;93716.31;;;5.26;48.55
9462;BME280;4769;42.660;23.262;2023-04-07T05:44:11;93734.84;;;5.25;49.30
9462;BME280;4769;42.660;23.262;2023-04-07T05:46:40;93729.94;;;5.10;48.31
9462;BME280;4769;42.660;23.262;2023-04-07T05:49:05;93735.97;;;5.11;49.67
9462;BME280;4769;42.660;23.262;2023-04-07T05:51:31;93741.72;;;5.19;49.72
9462;BME280;4769;42.660;23.262;2023-04-07T05:54:00;93739.13;;;4.95;49.23
9462;BME280;4769;42.660;23.262;2023-04-07T05:56:26;93735.22;;;4.61;50.45
9462;BME280;4769;42.660;23.262;2023-04-07T05:58:51;93730.94;;;4.67;50.27
9462;BME280;4769;42.660;23.262;2023-04-07T06:01:17;93723.66;;;4.75;49.69
9462;BME280;4769;42.660;23.262;2023-04-07T06:03:45;93729.22;;;5.03;49.54
9462;BME280;4769;42.660;23.262;2023-04-07T06:06:11;93718.19;;;5.37;48.63
9462;BME280;4769;42.660;23.262;2023-04-07T06:08:37;93728.50;;;4.72;49.40
9462;BME280;4769;42.660;23.262;2023-04-07T06:11:02;93733.72;;;4.72;49.75
9462;BME280;4769;42.660;23.262;2023-04-07T06:13:28;93727.22;;;4.81;49.66
9462;BME280;4769;42.660;23.262;2023-04-07T06:58:17;93743.59;;;6.02;46.67
9462;BME280;4769;42.660;23.262;2023-04-07T07:00:42;93736.78;;;6.42;45.62
9462;BME280;4769;42.660;23.262;2023-04-07T07:03:08;93747.66;;;6.57;45.03
9462;BME280;4769;42.660;23.262;2023-04-07T07:05:34;93736.63;;;6.78;44.68
9462;BME280;4769;42.660;23.262;2023-04-07T07:07:59;93735.38;;;6.92;44.59
9462;BME280;4769;42.660;23.262;2023-04-07T07:10:27;93752.78;;;6.87;44.66
9462;BME280;4769;42.660;23.262;2023-04-07T07:12:52;93746.22;;;7.19;43.58
9462;BME280;4769;42.660;23.262;2023-04-07T07:15:21;93758.19;;;7.26;43.47
9462;BME280;4769;42.660;23.262;2023-04-07T07:17:46;93747.47;;;7.28;43.77
9462;BME280;4769;42.660;23.262;2023-04-07T07:20:12;93754.06;;;7.42;43.62
9462;BME280;4769;42.660;23.262;2023-04-07T07:22:38;93749.63;;;7.31;43.66
9462;BME280;4769;42.660;23.262;2023-04-07T07:25:04;93750.66;;;7.07;43.51
9462;BME280;4769;42.660;23.262;2023-04-07T07:27:30;93754.88;;;7.31;44.13
9462;BME280;4769;42.660;23.262;2023-04-07T07:29:56;93758.97;;;7.15;43.78
9462;BME280;4769;42.660;23.262;2023-04-07T07:32:24;93748.94;;;7.47;43.28
9462;BME280;4769;42.660;23.262;2023-04-07T07:34:50;93754.97;;;6.90;43.91
9462;BME280;4769;42.660;23.262;2023-04-07T07:37:15;93766.19;;;7.20;43.42
9462;BME280;4769;42.660;23.262;2023-04-07T07:39:41;93776.53;;;7.38;43.71
9462;BME280;4769;42.660;23.262;2023-04-07T07:42:07;93760.34;;;7.18;43.08
9462;BME280;4769;42.660;23.262;2023-04-07T07:44:33;93772.09;;;7.15;42.77
9462;BME280;4769;42.660;23.262;2023-04-07T07:46:58;93769.81;;;7.30;43.01
9462;BME280;4769;42.660;23.262;2023-04-07T07:49:27;93772.84;;;7.85;42.62
9462;BME280;4769;42.660;23.262;2023-04-07T07:51:52;93790.53;;;7.66;41.46
9462;BME280;4769;42.660;23.262;2023-04-07T07:54:18;93766.59;;;6.82;43.04
9462;BME280;4769;42.660;23.262;2023-04-07T07:56:44;93769.31;;;6.76;43.92
9462;BME280;4769;42.660;23.262;2023-04-07T07:59:09;93778.03;;;7.22;43.61
9462;BME280;4769;42.660;23.262;2023-04-07T08:01:35;93776.88;;;7.18;43.42
9462;BME280;4769;42.660;23.262;2023-04-07T08:04:01;93781.22;;;7.36;43.11
9462;BME280;4769;42.660;23.262;2023-04-07T08:06:29;93779.72;;;7.74;43.04
9462;BME280;4769;42.660;23.262;2023-04-07T08:08:55;93779.16;;;7.49;41.82
9462;BME280;4769;42.660;23.262;2023-04-07T08:11:20;93766.09;;;7.89;42.26
9462;BME280;4769;42.660;23.262;2023-04-07T08:13:46;93784.03;;;7.69;41.70
9462;BME280;4769;42.660;23.262;2023-04-07T08:16:12;93781.81;;;7.89;42.31
9462;BME280;4769;42.660;23.262;2023-04-07T08:18:37;93768.19;;;8.71;41.57
9462;BME280;4769;42.660;23.262;2023-04-07T08:21:04;93760.31;;;9.20;39.88
9462;BME280;4769;42.660;23.262;2023-04-07T08:23:32;93790.88;;;8.32;40.33
9462;BME280;4769;42.660;23.262;2023-04-07T08:25:58;93781.59;;;7.90;41.55
9462;BME280;4769;42.660;23.262;2023-04-07T08:28:25;93780.94;;;7.83;42.04
9462;BME280;4769;42.660;23.262;2023-04-07T08:30:51;93771.50;;;8.22;41.22
9462;BME280;4769;42.660;23.262;2023-04-07T08:33:16;93779.69;;;7.86;41.64
9462;BME280;4769;42.660;23.262;2023-04-07T08:35:42;93780.41;;;7.47;42.29
9462;BME280;4769;42.660;23.262;2023-04-07T08:38:08;93783.16;;;7.17;43.76
9462;BME280;4769;42.660;23.262;2023-04-07T08:40:36;93780.66;;;7.57;43.64
9462;BME280;4769;42.660;23.262;2023-04-07T08:43:05;93771.72;;;7.81;42.60
9462;BME280;4769;42.660;23.262;2023-04-07T08:45:33;93777.59;;;7.99;41.85
9462;BME280;4769;42.660;23.262;2023-04-07T08:48:02;93758.59;;;7.81;41.80
9462;BME280;4769;42.660;23.262;2023-04-07T08:50:29;93780.38;;;7.70;41.76
9462;BME280;4769;42.660;23.262;2023-04-07T08:52:56;93769.09;;;7.81;42.13
9462;BME280;4769;42.660;23.262;2023-04-07T08:55:25;93770.41;;;7.95;41.57
9462;BME280;4769;42.660;23.262;2023-04-07T08:57:53;93763.16;;;8.25;40.80
9462;BME280;4769;42.660;23.262;2023-04-07T09:00:19;93767.81;;;8.79;39.73
9462;BME280;4769;42.660;23.262;2023-04-07T09:02:46;93775.66;;;9.07;38.46
9462;BME280;4769;42.660;23.262;2023-04-07T09:05:12;93773.31;;;9.10;38.67
9462;BME280;4769;42.660;23.262;2023-04-07T09:07:38;93770.91;;;8.76;39.27
9462;BME280;4769;42.660;23.262;2023-04-07T09:10:06;93769.88;;;8.77;40.68
9462;BME280;4769;42.660;23.262;2023-04-07T09:12:32;93765.50;;;9.70;40.28
9462;BME280;4769;42.660;23.262;2023-04-07T09:15:01;93772.41;;;9.92;38.15
9462;BME280;4769;42.660;23.262;2023-04-07T09:17:27;93777.53;;;9.11;37.76
9462;BME280;4769;42.660;23.262;2023-04-07T09:19:56;93789.69;;;8.68;39.60
9462;BME280;4769;42.660;23.262;2023-04-07T09:22:36;93799.97;;;8.69;40.03
9462;BME280;4769;42.660;23.262;2023-04-07T09:25:10;93779.41;;;8.50;40.54
9462;BME280;4769;42.660;23.262;2023-04-07T09:27:36;93775.19;;;8.65;40.57
9462;BME280;4769;42.660;23.262;2023-04-07T09:30:13;93785.59;;;9.21;39.42
9462;BME280;4769;42.660;23.262;2023-04-07T09:32:39;93790.19;;;8.65;39.74
9462;BME280;4769;42.660;23.262;2023-04-07T09:35:05;93790.09;;;8.32;40.12
9462;BME280;4769;42.660;23.262;2023-04-07T09:37:31;93785.88;;;8.47;40.35
9462;BME280;4769;42.660;23.262;2023-04-07T09:39:57;93787.13;;;8.73;40.76
9462;BME280;4769;42.660;23.262;2023-04-07T09:42:22;93782.72;;;8.90;40.64
9462;BME280;4769;42.660;23.262;2023-04-07T09:44:48;93791.63;;;8.89;40.77
9462;BME280;4769;42.660;23.262;2023-04-07T09:47:16;93783.44;;;9.02;40.84
9462;BME280;4769;42.660;23.262;2023-04-07T09:49:50;93782.88;;;9.16;39.84
9462;BME280;4769;42.660;23.262;2023-04-07T09:52:16;93784.88;;;9.09;40.03
9462;BME280;4769;42.660;23.262;2023-04-07T09:54:42;93793.09;;;9.13;39.85
9462;BME280;4769;42.660;23.262;2023-04-07T09:57:09;93773.88;;;9.45;39.45
9462;BME280;4769;42.660;23.262;2023-04-07T09:59:36;93776.03;;;10.08;38.47
9462;BME280;4769;42.660;23.262;2023-04-07T10:02:02;93768.97;;;10.83;37.25
9462;BME280;4769;42.660;23.262;2023-04-07T10:04:31;93782.69;;;10.58;36.41
9462;BME280;4769;42.660;23.262;2023-04-07T10:06:58;93793.13;;;9.67;37.90
9462;BME280;4769;42.660;23.262;2023-04-07T10:09:25;93789.22;;;9.70;38.36
9462;BME280;4769;42.660;23.262;2023-04-07T10:11:52;93778.00;;;9.58;38.59
9462;BME280;4769;42.660;23.262;2023-04-07T10:14:18;93779.72;;;10.07;37.79
9462;BME280;4769;42.660;23.262;2023-04-07T10:16:45;93774.75;;;9.34;38.70
9462;BME280;4769;42.660;23.262;2023-04-07T10:19:12;93790.06;;;9.21;39.13
9462;BME280;4769;42.660;23.262;2023-04-07T10:21:42;93787.97;;;9.06;39.46
9462;BME280;4769;42.660;23.262;2023-04-07T10:24:16;93778.28;;;9.23;38.97
9462;BME280;4769;42.660;23.262;2023-04-07T10:26:43;93785.28;;;9.01;39.62
9462;BME280;4769;42.660;23.262;2023-04-07T10:29:10;93776.41;;;9.24;39.17
9462;BME280;4769;42.660;23.262;2023-04-07T10:31:38;93784.47;;;9.01;39.90
9462;BME280;4769;42.660;23.262;2023-04-07T10:34:03;93786.91;;;8.74;40.36
9462;BME280;4769;42.660;23.262;2023-04-07T10:36:29;93802.41;;;9.20;40.02
9462;BME280;4769;42.660;23.262;2023-04-07T10:39:22;93788.47;;;9.36;40.27
9462;BME280;4769;42.660;23.262;2023-04-07T10:41:47;93795.41;;;9.80;38.41
9462;BME280;4769;42.660;23.262;2023-04-07T10:44:46;93797.38;;;10.06;39.13
9462;BME280;4769;42.660;23.262;2023-04-07T10:47:13;93804.00;;;10.30;39.72
9462;BME280;4769;42.660;23.262;2023-04-07T10:49:38;93804.53;;;10.32;40.40
9462;BME280;4769;42.660;23.262;2023-04-07T10:52:22;93799.50;;;9.71;41.91
9462;BME280;4769;42.660;23.262;2023-04-07T10:58:22;93800.81;;;9.36;44.05
9462;BME280;4769;42.660;23.262;2023-04-07T11:04:00;93794.06;;;10.37;42.22
9462;BME280;4769;42.660;23.262;2023-04-07T11:06:26;93786.09;;;10.11;42.58
9462;BME280;4769;42.660;23.262;2023-04-07T11:08:52;93809.59;;;9.96;43.26
9462;BME280;4769;42.660;23.262;2023-04-07T11:11:34;93814.03;;;9.57;43.74
9462;BME280;4769;42.660;23.262;2023-04-07T11:14:03;93810.63;;;9.24;44.52
9462;BME280;4769;42.660;23.262;2023-04-07T11:16:37;93804.72;;;9.17;45.02
9462;BME280;4769;42.660;23.262;2023-04-07T11:19:03;93799.75;;;9.53;44.25
9462;BME280;4769;42.660;23.262;2023-04-07T11:21:28;93808.88;;;10.22;43.30
9462;BME280;4769;42.660;23.262;2023-04-07T11:23:54;93805.88;;;10.35;42.56
9462;BME280;4769;42.660;23.262;2023-04-07T11:26:20;93799.69;;;10.46;42.75
9462;BME280;4769;42.660;23.262;2023-04-07T11:28:47;93805.25;;;10.71;42.25
9462;BME280;4769;42.660;23.262;2023-04-07T11:31:24;93787.75;;;10.38;41.26
9462;BME280;4769;42.660;23.262;2023-04-07T11:33:54;93792.81;;;10.45;39.63
9462;BME280;4769;42.660;23.262;2023-04-07T11:36:27;93812.94;;;10.29;39.01
9462;BME280;4769;42.660;23.262;2023-04-07T11:38:54;93808.78;;;10.81;40.32
9462;BME280;4769;42.660;23.262;2023-04-07T11:41:19;93817.47;;;10.55;41.51
9462;BME280;4769;42.660;23.262;2023-04-07T11:43:45;93805.69;;;10.41;41.86
9462;BME280;4769;42.660;23.262;2023-04-07T11:46:14;93816.13;;;10.53;42.63
9462;BME280;4769;42.660;23.262;2023-04-07T11:48:45;93816.25;;;10.20;42.41
9462;BME280;4769;42.660;23.262;2023-04-07T11:51:16;93802.16;;;10.31;42.46
9462;BME280;4769;42.660;23.262;2023-04-07T11:53:42;93820.00;;;9.86;44.22
9462;BME280;4769;42.660;23.262;2023-04-07T11:56:09;93819.78;;;9.71;45.25
9462;BME280;4769;42.660;23.262;2023-04-07T11:58:36;93805.94;;;9.42;45.94
9462;BME280;4769;42.660;23.262;2023-04-07T12:01:03;93807.63;;;9.70;45.81
9462;BME280;4769;42.660;23.262;2023-04-07T12:03:29;93801.19;;;9.61;46.39
9462;BME280;4769;42.660;23.262;2023-04-07T12:05:57;93804.00;;;10.09;45.31
9462;BME280;4769;42.660;23.262;2023-04-07T12:08:37;93799.22;;;10.06;45.03
9462;BME280;4769;42.660;23.262;2023-04-07T12:11:02;93795.72;;;9.84;45.20
9462;BME280;4769;42.660;23.262;2023-04-07T12:13:28;93813.13;;;9.85;45.19
9462;BME280;4769;42.660;23.262;2023-04-07T12:15:54;93803.56;;;9.79;45.86
9462;BME280;4769;42.660;23.262;2023-04-07T12:18:20;93803.28;;;9.97;45.27
9462;BME280;4769;42.660;23.262;2023-04-07T12:20:45;93810.69;;;10.38;44.26
9462;BME280;4769;42.660;23.262;2023-04-07T12:23:14;93799.38;;;10.21;44.13
9462;BME280;4769;42.660;23.262;2023-04-07T12:25:39;93809.41;;;10.02;45.34
9462;BME280;4769;42.660;23.262;2023-04-07T12:28:05;93803.69;;;10.27;45.07
9462;BME280;4769;42.660;23.262;2023-04-07T12:30:31;93802.03;;;10.21;45.12
9462;BME280;4769;42.660;23.262;2023-04-07T12:32:56;93798.66;;;10.25;44.49
9462;BME280;4769;42.660;23.262;2023-04-07T12:35:22;93800.66;;;10.40;43.56
9462;BME280;4769;42.660;23.262;2023-04-07T12:37:48;93798.03;;;10.40;42.87
9462;BME280;4769;42.660;23.262;2023-04-07T12:40:16;93795.66;;;10.60;42.79
9462;BME280;4769;42.660;23.262;2023-04-07T12:42:42;93801.66;;;10.82;41.99
9462;BME280;4769;42.660;23.262;2023-04-07T12:45:08;93793.09;;;11.28;41.37
9462;BME280;4769;42.660;23.262;2023-04-07T12:47:34;93800.31;;;11.37;41.06
9462;BME280;4769;42.660;23.262;2023-04-07T12:50:00;93799.25;;;11.38;41.07
9462;BME280;4769;42.660;23.262;2023-04-07T12:52:25;93796.91;;;10.79;41.98
9462;BME280;4769;42.660;23.262;2023-04-07T12:54:51;93800.72;;;10.66;42.46
9462;BME280;4769;42.660;23.262;2023-04-07T12:57:20;93802.59;;;10.44;43.01
9462;BME280;4769;42.660;23.262;2023-04-07T12:59:45;93799.56;;;10.84;43.04
9462;BME280;4769;42.660;23.262;2023-04-07T13:02:11;93803.03;;;10.89;42.65
9462;BME280;4769;42.660;23.262;2023-04-07T13:04:37;93812.41;;;11.02;42.57
9462;BME280;4769;42.660;23.262;2023-04-07T13:07:03;93814.72;;;10.45;43.13
9462;BME280;4769;42.660;23.262;2023-04-07T13:09:28;93810.69;;;10.38;44.37
9462;BME280;4769;42.660;23.262;2023-04-07T13:11:54;93812.53;;;10.64;43.98
9462;BME280;4769;42.660;23.262;2023-04-07T13:14:25;93799.53;;;10.52;43.73
9462;BME280;4769;42.660;23.262;2023-04-07T13:16:51;93802.91;;;10.74;44.03
9462;BME280;4769;42.660;23.262;2023-04-07T13:19:17;93813.34;;;10.64;44.26
9462;BME280;4769;42.660;23.262;2023-04-07T13:21:43;93814.50;;;11.00;43.92
9462;BME280;4769;42.660;23.262;2023-04-07T13:24:08;93813.47;;;11.32;43.59
9462;BME280;4769;42.660;23.262;2023-04-07T13:26:34;93814.31;;;10.80;43.43
9462;BME280;4769;42.660;23.262;2023-04-07T13:29:00;93822.88;;;10.22;45.69
9462;BME280;4769;42.660;23.262;2023-04-07T13:31:28;93807.78;;;9.80;46.98
9462;BME280;4769;42.660;23.262;2023-04-07T13:33:54;93817.25;;;9.97;46.39
9462;BME280;4769;42.660;23.262;2023-04-07T13:36:20;93815.38;;;10.36;46.05
9462;BME280;4769;42.660;23.262;2023-04-07T13:38:45;93819.28;;;10.12;46.47
9462;BME280;4769;42.660;23.262;2023-04-07T13:41:11;93843.53;;;9.76;47.56
9462;BME280;4769;42.660;23.262;2023-04-07T13:43:37;93819.47;;;9.51;47.68
9462;BME280;4769;42.660;23.262;2023-04-07T13:46:02;93835.16;;;9.62;48.11
9462;BME280;4769;42.660;23.262;2023-04-07T13:48:31;93849.91;;;9.30;48.93
9462;BME280;4769;42.660;23.262;2023-04-07T13:50:56;93847.09;;;9.04;49.97
9462;BME280;4769;42.660;23.262;2023-04-07T13:53:22;93849.81;;;8.64;51.64
9462;BME280;4769;42.660;23.262;2023-04-07T13:55:49;93853.66;;;9.18;51.09
9462;BME280;4769;42.660;23.262;2023-04-07T13:58:16;93850.31;;;9.06;51.00
9462;BME280;4769;42.660;23.262;2023-04-07T14:00:42;93849.50;;;9.05;51.76
9462;BME280;4769;42.660;23.262;2023-04-07T14:03:08;93865.22;;;9.17;51.71
9462;BME280;4769;42.660;23.262;2023-04-07T14:05:36;93869.84;;;9.43;51.27
9462;BME280;4769;42.660;23.262;2023-04-07T14:08:02;93869.31;;;9.57;51.24